sensor_id;sensor_type;location;lat;lon;timestamp;pressure;altitude;pressure_sealevel;temperature;humidity
1207;BME280;593;53.184;8.216;2023-12-20T00:02:05;100736.03;;;8.58;100.00
1207;BME280;593;53.184;8.216;2023-12-20T00:04:30;100733.03;;;8.60;100.00
1207;BME280;593;53.184;8.216;2023-12-20T00:06:56;100729.25;;;8.56;100.00
1207;BME280;593;53.184;8.216;2023-12-20T00:09:21;100719.47;;;8.55;100.00
1207;BME280;593;53.184;8.216;2023-12-20T00:11:46;100713.78;;;8.51;100.00
1207;BME280;593;53.184;8.216;2023-12-20T00:14:12;100723.28;;;8.54;100.00
1207;BME280;593;53.184;8.216;2023-12-20T00:16:37;100721.94;;;8.51;100.00
1207;BME280;593;53.184;8.216;2023-12-20T00:19:02;100704.81;;;8.46;100.00
1207;BME280;593;53.184;8.216;2023-12-20T00:21:28;100704.53;;;8.47;100.00
1207;BME280;593;53.184;8.216;2023-12-20T00:23:53;100711.06;;;8.46;100.00
1207;BME280;593;53.184;8.216;2023-12-20T00:26:18;100702.94;;;8.41;100.00
1207;BME280;593;53.184;8.216;2023-12-20T00:28:44;100712.66;;;8.42;100.00
1207;BME280;593;53.184;8.216;2023-12-20T00:31:09;100701.28;;;8.40;100.00
1207;BME280;593;53.184;8.216;2023-12-20T00:33:34;100693.69;;;8.37;100.00
1207;BME280;593;53.184;8.216;2023-12-20T00:36:00;100683.66;;;8.37;100.00
1207;BME280;593;53.184;8.216;2023-12-20T00:38:25;100693.97;;;8.35;100.00
1207;BME280;593;53.184;8.216;2023-12-20T00:40:51;100690.72;;;8.33;100.00
1207;BME280;593;53.184;8.216;2023-12-20T00:43:16;100688.53;;;8.30;100.00
1207;BME280;593;53.184;8.216;2023-12-20T00:45:41;100694.75;;;8.31;100.00
1207;BME280;593;53.184;8.216;2023-12-20T00:48:07;100696.66;;;8.30;100.00
1207;BME280;593;53.184;8.216;2023-12-20T00:50:32;100695.00;;;8.29;100.00
1207;BME280;593;53.184;8.216;2023-12-20T00:52:57;100690.94;;;8.27;100.00
1207;BME280;593;53.184;8.216;2023-12-20T00:55:23;100692.59;;;8.28;100.00
1207;BME280;593;53.184;8.216;2023-12-20T00:57:48;100685.22;;;8.23;100.00
1207;BME280;593;53.184;8.216;2023-12-20T01:00:14;100686.06;;;8.24;100.00
1207;BME280;593;53.184;8.216;2023-12-20T01:02:40;100694.19;;;8.24;100.00
1207;BME280;593;53.184;8.216;2023-12-20T01:05:06;100661.34;;;8.10;100.00
1207;BME280;593;53.184;8.216;2023-12-20T01:07:32;100668.97;;;8.18;100.00
1207;BME280;593;53.184;8.216;2023-12-20T01:09:57;100676.56;;;8.21;100.00
1207;BME280;593;53.184;8.216;2023-12-20T01:12:23;100666.78;;;8.20;100.00
1207;BME280;593;53.184;8.216;2023-12-20T01:14:48;100674.91;;;8.20;100.00
1207;BME280;593;53.184;8.216;2023-12-20T01:17:13;100667.31;;;8.17;100.00
1207;BME280;593;53.184;8.216;2023-12-20T01:19:39;100668.13;;;8.18;100.00
1207;BME280;593;53.184;8.216;2023-12-20T01:22:04;100671.91;;;8.17;100.00
1207;BME280;593;53.184;8.216;2023-12-20T01:24:30;100661.63;;;8.14;100.00
1207;BME280;593;53.184;8.216;2023-12-20T01:26:55;100669.19;;;8.17;100.00
1207;BME280;593;53.184;8.216;2023-12-20T01:29:20;100671.13;;;8.16;100.00
1207;BME280;593;53.184;8.216;2023-12-20T01:31:46;100664.88;;;8.16;100.00
1207;BME280;593;53.184;8.216;2023-12-20T01:34:11;100653.75;;;8.07;100.00
1207;BME280;593;53.184;8.216;2023-12-20T01:36:37;100654.84;;;8.11;100.00
1207;BME280;593;53.184;8.216;2023-12-20T01:39:02;100651.84;;;8.08;100.00
1207;BME280;593;53.184;8.216;2023-12-20T01:41:28;100664.88;;;8.11;100.00
1207;BME280;593;53.184;8.216;2023-12-20T01:43:53;100656.19;;;8.09;100.00
1207;BME280;593;53.184;8.216;2023-12-20T01:46:20;100655.91;;;8.05;100.00
1207;BME280;593;53.184;8.216;2023-12-20T01:48:47;100659.16;;;8.07;100.00
1207;BME280;593;53.184;8.216;2023-12-20T01:51:12;100647.25;;;8.03;100.00
1207;BME280;593;53.184;8.216;2023-12-20T01:53:38;100637.75;;;8.01;100.00
1207;BME280;593;53.184;8.216;2023-12-20T01:56:05;100639.13;;;8.03;100.00
1207;BME280;593;53.184;8.216;2023-12-20T01:58:31;100645.59;;;8.02;100.00
1207;BME280;593;53.184;8.216;2023-12-20T02:00:57;100641.81;;;8.03;100.00
1207;BME280;593;53.184;8.216;2023-12-20T02:03:22;100634.22;;;8.00;100.00
1207;BME280;593;53.184;8.216;2023-12-20T02:05:48;100629.88;;;8.04;100.00
1207;BME280;593;53.184;8.216;2023-12-20T02:08:13;100633.69;;;8.03;100.00
1207;BME280;593;53.184;8.216;2023-12-20T02:10:39;100623.91;;;7.97;100.00
1207;BME280;593;53.184;8.216;2023-12-20T02:13:05;100627.16;;;7.99;100.00
1207;BME280;593;53.184;8.216;2023-12-20T02:15:31;100624.22;;;8.01;100.00
1207;BME280;593;53.184;8.216;2023-12-20T02:17:56;100617.16;;;8.00;100.00
1207;BME280;593;53.184;8.216;2023-12-20T02:20:22;100622.56;;;8.00;100.00
1207;BME280;593;53.184;8.216;2023-12-20T02:22:47;100616.34;;;7.99;100.00
1207;BME280;593;53.184;8.216;2023-12-20T02:25:13;100607.94;;;7.96;100.00
1207;BME280;593;53.184;8.216;2023-12-20T02:27:39;100611.72;;;8.00;100.00
1207;BME280;593;53.184;8.216;2023-12-20T02:30:05;100610.91;;;7.99;100.00
1207;BME280;593;53.184;8.216;2023-12-20T02:32:31;100602.25;;;7.97;100.00
1207;BME280;593;53.184;8.216;2023-12-20T02:34:57;100604.44;;;8.00;100.00
1207;BME280;593;53.184;8.216;2023-12-20T02:37:22;100611.72;;;8.00;100.00
1207;BME280;593;53.184;8.216;2023-12-20T02:39:48;100600.34;;;7.98;100.00
1207;BME280;593;53.184;8.216;2023-12-20T02:42:13;100609.84;;;8.00;100.00
1207;BME280;593;53.184;8.216;2023-12-20T02:44:38;100605.25;;;8.01;100.00
1207;BME280;593;53.184;8.216;2023-12-20T02:47:04;100609.31;;;8.03;100.00
1207;BME280;593;53.184;8.216;2023-12-20T02:49:29;100604.72;;;8.04;100.00
1207;BME280;593;53.184;8.216;2023-12-20T02:51:54;100594.13;;;8.02;100.00
1207;BME280;593;53.184;8.216;2023-12-20T02:54:20;100599.31;;;8.04;100.00
1207;BME280;593;53.184;8.216;2023-12-20T02:56:45;100602.56;;;8.06;100.00
1207;BME280;593;53.184;8.216;2023-12-20T02:59:10;100591.72;;;8.06;100.00
1207;BME280;593;53.184;8.216;2023-12-20T03:01:41;100587.66;;;8.08;100.00
1207;BME280;593;53.184;8.216;2023-12-20T03:04:07;100582.25;;;8.03;100.00
1207;BME280;593;53.184;8.216;2023-12-20T03:06:33;100588.19;;;8.05;100.00
1207;BME280;593;53.184;8.216;2023-12-20T03:08:58;100588.47;;;8.04;100.00
1207;BME280;593;53.184;8.216;2023-12-20T03:11:26;100585.50;;;8.10;100.00
1207;BME280;593;53.184;8.216;2023-12-20T03:13:52;100578.19;;;8.06;100.00
1207;BME280;593;53.184;8.216;2023-12-20T03:16:17;100577.38;;;8.10;100.00
1207;BME280;593;53.184;8.216;2023-12-20T03:18:43;100579.81;;;8.12;100.00
1207;BME280;593;53.184;8.216;2023-12-20T03:21:08;100562.47;;;8.13;100.00
1207;BME280;593;53.184;8.216;2023-12-20T03:23:34;100572.25;;;8.14;100.00
1207;BME280;593;53.184;8.216;2023-12-20T03:26:00;100573.31;;;8.13;100.00
1207;BME280;593;53.184;8.216;2023-12-20T03:28:26;100569.53;;;8.14;100.00
1207;BME280;593;53.184;8.216;2023-12-20T03:30:52;100557.59;;;8.10;100.00
1207;BME280;593;53.184;8.216;2023-12-20T03:33:17;100562.19;;;8.14;100.00
1207;BME280;593;53.184;8.216;2023-12-20T03:35:43;100556.78;;;8.14;100.00
1207;BME280;593;53.184;8.216;2023-12-20T03:38:08;100559.78;;;8.18;100.00
1207;BME280;593;53.184;8.216;2023-12-20T03:40:39;100560.59;;;8.18;100.00
1207;BME280;593;53.184;8.216;2023-12-20T03:43:05;100550.81;;;8.17;100.00
1207;BME280;593;53.184;8.216;2023-12-20T03:45:31;100549.47;;;8.20;100.00
1207;BME280;593;53.184;8.216;2023-12-20T03:47:56;100534.03;;;8.15;100.00
1207;BME280;593;53.184;8.216;2023-12-20T03:50:22;100534.88;;;8.21;100.00
1207;BME280;593;53.184;8.216;2023-12-20T03:52:48;100529.97;;;8.18;100.00
1207;BME280;593;53.184;8.216;2023-12-20T03:55:13;100528.63;;;8.20;100.00
1207;BME280;593;53.184;8.216;2023-12-20T03:57:38;100523.75;;;8.22;100.00
1207;BME280;593;53.184;8.216;2023-12-20T04:00:05;100501.81;;;8.09;100.00
1207;BME280;593;53.184;8.216;2023-12-20T04:02:34;100526.75;;;8.21;100.00
1207;BME280;593;53.184;8.216;2023-12-20T04:04:59;100521.03;;;8.17;100.00
1207;BME280;593;53.184;8.216;2023-12-20T04:07:24;100528.91;;;8.24;100.00
1207;BME280;593;53.184;8.216;2023-12-20T04:09:50;100518.88;;;8.24;100.00
1207;BME280;593;53.184;8.216;2023-12-20T04:12:15;100514.53;;;8.23;100.00
1207;BME280;593;53.184;8.216;2023-12-20T04:14:40;100518.31;;;8.22;100.00
1207;BME280;593;53.184;8.216;2023-12-20T04:17:06;100521.03;;;8.22;100.00
1207;BME280;593;53.184;8.216;2023-12-20T04:19:31;100503.44;;;8.20;100.00
1207;BME280;593;53.184;8.216;2023-12-20T04:21:57;100500.72;;;8.20;100.00
1207;BME280;593;53.184;8.216;2023-12-20T04:24:22;100512.66;;;8.19;100.00
1207;BME280;593;53.184;8.216;2023-12-20T04:26:48;100513.19;;;8.21;100.00
1207;BME280;593;53.184;8.216;2023-12-20T04:29:13;100521.56;;;8.24;100.00
1207;BME280;593;53.184;8.216;2023-12-20T04:31:38;100522.66;;;8.23;100.00
1207;BME280;593;53.184;8.216;2023-12-20T04:34:04;100527.56;;;8.21;100.00
1207;BME280;593;53.184;8.216;2023-12-20T04:36:29;100520.50;;;8.20;100.00
1207;BME280;593;53.184;8.216;2023-12-20T04:38:55;100525.09;;;8.25;100.00
1207;BME280;593;53.184;8.216;2023-12-20T04:41:20;100528.63;;;8.25;100.00
1207;BME280;593;53.184;8.216;2023-12-20T04:43:46;100521.31;;;8.21;100.00
1207;BME280;593;53.184;8.216;2023-12-20T04:46:11;100517.78;;;8.25;100.00
1207;BME280;593;53.184;8.216;2023-12-20T04:48:36;100509.13;;;8.23;100.00
1207;BME280;593;53.184;8.216;2023-12-20T04:51:02;100513.44;;;8.24;100.00
1207;BME280;593;53.184;8.216;2023-12-20T04:53:27;100505.59;;;8.23;100.00
1207;BME280;593;53.184;8.216;2023-12-20T04:55:53;100512.38;;;8.25;100.00
1207;BME280;593;53.184;8.216;2023-12-20T04:58:18;100504.81;;;8.27;100.00
1207;BME280;593;53.184;8.216;2023-12-20T05:00:44;100495.06;;;8.26;100.00
1207;BME280;593;53.184;8.216;2023-12-20T05:03:09;100500.22;;;8.28;100.00
1207;BME280;593;53.184;8.216;2023-12-20T05:05:35;100493.41;;;8.25;100.00
1207;BME280;593;53.184;8.216;2023-12-20T05:08:01;100492.91;;;8.28;100.00
1207;BME280;593;53.184;8.216;2023-12-20T05:10:26;100484.78;;;8.28;100.00
1207;BME280;593;53.184;8.216;2023-12-20T05:12:52;100487.47;;;8.28;100.00
1207;BME280;593;53.184;8.216;2023-12-20T05:15:17;100486.66;;;8.28;100.00
1207;BME280;593;53.184;8.216;2023-12-20T05:17:43;100480.97;;;8.29;100.00
1207;BME280;593;53.184;8.216;2023-12-20T05:20:08;100479.59;;;8.27;100.00
1207;BME280;593;53.184;8.216;2023-12-20T05:22:33;100489.38;;;8.28;100.00
1207;BME280;593;53.184;8.216;2023-12-20T05:24:59;100483.94;;;8.23;100.00
1207;BME280;593;53.184;8.216;2023-12-20T05:27:24;100492.06;;;8.23;100.00
1207;BME280;593;53.184;8.216;2023-12-20T05:29:49;100491.25;;;8.27;100.00
1207;BME280;593;53.184;8.216;2023-12-20T05:32:15;100481.25;;;8.28;100.00
1207;BME280;593;53.184;8.216;2023-12-20T05:34:41;100484.25;;;8.26;100.00
1207;BME280;593;53.184;8.216;2023-12-20T05:37:06;100480.69;;;8.26;100.00
1207;BME280;593;53.184;8.216;2023-12-20T05:39:31;100478.25;;;8.29;100.00
1207;BME280;593;53.184;8.216;2023-12-20T05:41:57;100475.53;;;8.29;100.00
1207;BME280;593;53.184;8.216;2023-12-20T05:44:22;100475.25;;;8.26;100.00
1207;BME280;593;53.184;8.216;2023-12-20T05:46:47;100484.25;;;8.31;100.00
1207;BME280;593;53.184;8.216;2023-12-20T05:49:13;100469.34;;;8.29;100.00
1207;BME280;593;53.184;8.216;2023-12-20T05:51:39;100472.84;;;8.29;100.00
1207;BME280;593;53.184;8.216;2023-12-20T05:54:04;100476.34;;;8.25;100.00
1207;BME280;593;53.184;8.216;2023-12-20T05:56:29;100474.72;;;8.24;100.00
1207;BME280;593;53.184;8.216;2023-12-20T05:58:55;100477.47;;;8.29;100.00
1207;BME280;593;53.184;8.216;2023-12-20T06:01:20;100470.94;;;8.30;100.00
1207;BME280;593;53.184;8.216;2023-12-20T06:03:45;100467.97;;;8.26;100.00
1207;BME280;593;53.184;8.216;2023-12-20T06:06:11;100477.72;;;8.32;100.00
1207;BME280;593;53.184;8.216;2023-12-20T06:08:38;100465.81;;;8.28;100.00
1207;BME280;593;53.184;8.216;2023-12-20T06:11:03;100467.97;;;8.31;100.00
1207;BME280;593;53.184;8.216;2023-12-20T06:13:28;100471.47;;;8.32;100.00
1207;BME280;593;53.184;8.216;2023-12-20T06:15:54;100468.78;;;8.32;100.00
1207;BME280;593;53.184;8.216;2023-12-20T06:18:20;100434.38;;;8.27;100.00
1207;BME280;593;53.184;8.216;2023-12-20T06:20:46;100455.22;;;8.37;100.00
1207;BME280;593;53.184;8.216;2023-12-20T06:23:11;100446.84;;;8.33;100.00
1207;BME280;593;53.184;8.216;2023-12-20T06:25:36;100447.66;;;8.34;100.00
1207;BME280;593;53.184;8.216;2023-12-20T06:28:02;100447.66;;;8.39;100.00
1207;BME280;593;53.184;8.216;2023-12-20T06:30:27;100451.44;;;8.38;100.00
1207;BME280;593;53.184;8.216;2023-12-20T06:32:54;100437.88;;;8.38;100.00
1207;BME280;593;53.184;8.216;2023-12-20T06:35:20;100433.00;;;8.40;100.00
1207;BME280;593;53.184;8.216;2023-12-20T06:37:45;100433.53;;;8.42;100.00
1207;BME280;593;53.184;8.216;2023-12-20T06:40:11;100429.22;;;8.41;100.00
1207;BME280;593;53.184;8.216;2023-12-20T06:42:36;100436.81;;;8.39;100.00
1207;BME280;593;53.184;8.216;2023-12-20T06:45:02;100429.47;;;8.39;100.00
1207;BME280;593;53.184;8.216;2023-12-20T06:47:27;100423.50;;;8.43;100.00
1207;BME280;593;53.184;8.216;2023-12-20T06:49:53;100421.06;;;8.46;100.00
1207;BME280;593;53.184;8.216;2023-12-20T06:52:18;100422.97;;;8.46;100.00
1207;BME280;593;53.184;8.216;2023-12-20T06:54:43;100399.66;;;8.45;100.00
1207;BME280;593;53.184;8.216;2023-12-20T06:57:09;100420.53;;;8.49;100.00
1207;BME280;593;53.184;8.216;2023-12-20T06:59:38;100419.72;;;8.49;100.00
1207;BME280;593;53.184;8.216;2023-12-20T07:02:05;100419.19;;;8.47;100.00
1207;BME280;593;53.184;8.216;2023-12-20T07:04:30;100415.38;;;8.48;100.00
1207;BME280;593;53.184;8.216;2023-12-20T07:06:56;100427.31;;;8.47;100.00
1207;BME280;593;53.184;8.216;2023-12-20T07:09:22;100419.19;;;8.47;100.00
1207;BME280;593;53.184;8.216;2023-12-20T07:11:48;100415.91;;;8.50;100.00
1207;BME280;593;53.184;8.216;2023-12-20T07:14:14;100393.44;;;8.44;100.00
1207;BME280;593;53.184;8.216;2023-12-20T07:16:39;100395.56;;;8.52;100.00
1207;BME280;593;53.184;8.216;2023-12-20T07:19:05;100398.28;;;8.52;100.00
1207;BME280;593;53.184;8.216;2023-12-20T07:21:31;100396.13;;;8.54;100.00
1207;BME280;593;53.184;8.216;2023-12-20T07:23:57;100388.00;;;8.54;100.00
1207;BME280;593;53.184;8.216;2023-12-20T07:26:22;100392.31;;;8.50;100.00
1207;BME280;593;53.184;8.216;2023-12-20T07:28:48;100394.75;;;8.57;100.00
1207;BME280;593;53.184;8.216;2023-12-20T07:31:15;100385.28;;;8.54;100.00
1207;BME280;593;53.184;8.216;2023-12-20T07:33:40;100379.31;;;8.52;100.00
1207;BME280;593;53.184;8.216;2023-12-20T07:36:06;100380.41;;;8.56;100.00
1207;BME280;593;53.184;8.216;2023-12-20T07:38:31;100386.34;;;8.58;100.00
1207;BME280;593;53.184;8.216;2023-12-20T07:40:57;100389.06;;;8.58;100.00
1207;BME280;593;53.184;8.216;2023-12-20T07:43:22;100379.84;;;8.59;100.00
1207;BME280;593;53.184;8.216;2023-12-20T07:45:47;100376.56;;;8.57;100.00
1207;BME280;593;53.184;8.216;2023-12-20T07:48:13;100373.88;;;8.57;100.00
1207;BME280;593;53.184;8.216;2023-12-20T07:50:39;100381.22;;;8.57;100.00
1207;BME280;593;53.184;8.216;2023-12-20T07:53:04;100376.56;;;8.57;100.00
1207;BME280;593;53.184;8.216;2023-12-20T07:55:29;100370.91;;;8.59;100.00
1207;BME280;593;53.184;8.216;2023-12-20T07:57:56;100361.94;;;8.58;100.00
1207;BME280;593;53.184;8.216;2023-12-20T08:00:21;100366.56;;;8.58;100.00
1207;BME280;593;53.184;8.216;2023-12-20T08:02:47;100368.72;;;8.61;100.00
1207;BME280;593;53.184;8.216;2023-12-20T08:05:12;100366.81;;;8.61;100.00
1207;BME280;593;53.184;8.216;2023-12-20T08:07:38;100362.47;;;8.60;100.00
1207;BME280;593;53.184;8.216;2023-12-20T08:10:04;100364.91;;;8.62;100.00
1207;BME280;593;53.184;8.216;2023-12-20T08:12:29;100370.06;;;8.63;100.00
1207;BME280;593;53.184;8.216;2023-12-20T08:14:55;100365.19;;;8.60;100.00
1207;BME280;593;53.184;8.216;2023-12-20T08:17:22;100364.91;;;8.62;100.00
1207;BME280;593;53.184;8.216;2023-12-20T08:19:48;100349.75;;;8.61;100.00
1207;BME280;593;53.184;8.216;2023-12-20T08:22:13;100368.97;;;8.64;100.00
1207;BME280;593;53.184;8.216;2023-12-20T08:24:39;100354.31;;;8.65;100.00
1207;BME280;593;53.184;8.216;2023-12-20T08:27:04;100346.47;;;8.64;100.00
1207;BME280;593;53.184;8.216;2023-12-20T08:29:30;100352.44;;;8.66;100.00
1207;BME280;593;53.184;8.216;2023-12-20T08:31:56;100346.47;;;8.69;100.00
1207;BME280;593;53.184;8.216;2023-12-20T08:34:21;100338.06;;;8.65;100.00
1207;BME280;593;53.184;8.216;2023-12-20T08:36:50;100354.31;;;8.70;100.00
1207;BME280;593;53.184;8.216;2023-12-20T08:39:16;100350.53;;;8.71;100.00
1207;BME280;593;53.184;8.216;2023-12-20T08:41:42;100349.97;;;8.69;100.00
1207;BME280;593;53.184;8.216;2023-12-20T08:44:07;100344.28;;;8.71;100.00
1207;BME280;593;53.184;8.216;2023-12-20T08:46:33;100349.16;;;8.74;100.00
1207;BME280;593;53.184;8.216;2023-12-20T08:48:58;100341.81;;;8.74;100.00
1207;BME280;593;53.184;8.216;2023-12-20T08:51:23;100349.94;;;8.74;100.00
1207;BME280;593;53.184;8.216;2023-12-20T08:53:51;100340.72;;;8.75;100.00
1207;BME280;593;53.184;8.216;2023-12-20T08:56:16;100336.38;;;8.74;100.00
1207;BME280;593;53.184;8.216;2023-12-20T08:58:43;100336.38;;;8.74;100.00
1207;BME280;593;53.184;8.216;2023-12-20T09:01:08;100326.66;;;8.73;100.00
1207;BME280;593;53.184;8.216;2023-12-20T09:03:34;100331.53;;;8.76;100.00
1207;BME280;593;53.184;8.216;2023-12-20T09:06:00;100325.00;;;8.77;100.00
1207;BME280;593;53.184;8.216;2023-12-20T09:08:25;100295.72;;;8.74;100.00
1207;BME280;593;53.184;8.216;2023-12-20T09:10:50;100294.09;;;8.78;100.00
1207;BME280;593;53.184;8.216;2023-12-20T09:13:16;100362.94;;;8.77;100.00
1207;BME280;593;53.184;8.216;2023-12-20T09:15:41;100399.84;;;8.78;100.00
1207;BME280;593;53.184;8.216;2023-12-20T09:18:07;100406.84;;;8.79;100.00
1207;BME280;593;53.184;8.216;2023-12-20T09:20:33;100425.06;;;8.79;100.00
1207;BME280;593;53.184;8.216;2023-12-20T09:22:58;100418.81;;;8.78;100.00
1207;BME280;593;53.184;8.216;2023-12-20T09:25:24;100424.47;;;8.82;100.00
1207;BME280;593;53.184;8.216;2023-12-20T09:27:51;100412.03;;;8.76;100.00
1207;BME280;593;53.184;8.216;2023-12-20T09:30:17;100426.94;;;8.78;100.00
1207;BME280;593;53.184;8.216;2023-12-20T09:32:42;100425.06;;;8.74;100.00
1207;BME280;593;53.184;8.216;2023-12-20T09:35:08;100435.91;;;8.74;100.00
1207;BME280;593;53.184;8.216;2023-12-20T09:37:34;100429.38;;;8.75;100.00
1207;BME280;593;53.184;8.216;2023-12-20T09:39:59;100440.53;;;8.73;100.00
1207;BME280;593;53.184;8.216;2023-12-20T09:42:35;100426.16;;;8.68;100.00
1207;BME280;593;53.184;8.216;2023-12-20T09:45:02;100410.97;;;8.67;100.00
1207;BME280;593;53.184;8.216;2023-12-20T09:47:28;100413.69;;;8.67;100.00
1207;BME280;593;53.184;8.216;2023-12-20T09:49:54;100423.44;;;8.68;100.00
1207;BME280;593;53.184;8.216;2023-12-20T09:52:20;100415.88;;;8.65;100.00
1207;BME280;593;53.184;8.216;2023-12-20T09:54:49;100399.88;;;8.63;100.00
1207;BME280;593;53.184;8.216;2023-12-20T09:57:17;100397.72;;;8.60;100.00
1207;BME280;593;53.184;8.216;2023-12-20T09:59:43;100401.78;;;8.58;100.00
1207;BME280;593;53.184;8.216;2023-12-20T10:02:12;100415.63;;;8.61;100.00
1207;BME280;593;53.184;8.216;2023-12-20T10:04:46;100429.44;;;8.60;100.00
1207;BME280;593;53.184;8.216;2023-12-20T10:07:11;100437.56;;;8.60;100.00
1207;BME280;593;53.184;8.216;2023-12-20T10:09:38;100434.84;;;8.60;100.00
1207;BME280;593;53.184;8.216;2023-12-20T10:12:04;100440.28;;;8.60;100.00
1207;BME280;593;53.184;8.216;2023-12-20T10:14:30;100442.44;;;8.58;100.00
1207;BME280;593;53.184;8.216;2023-12-20T10:17:05;100444.91;;;8.59;100.00
1207;BME280;593;53.184;8.216;2023-12-20T10:19:31;100452.47;;;8.57;100.00
1207;BME280;593;53.184;8.216;2023-12-20T10:22:01;100458.72;;;8.58;100.00
1207;BME280;593;53.184;8.216;2023-12-20T10:24:29;100456.28;;;8.56;100.00
1207;BME280;593;53.184;8.216;2023-12-20T10:27:05;100463.06;;;8.59;100.00
1207;BME280;593;53.184;8.216;2023-12-20T10:29:37;100458.72;;;8.58;100.00
1207;BME280;593;53.184;8.216;2023-12-20T10:32:25;100454.41;;;8.57;100.00
1207;BME280;593;53.184;8.216;2023-12-20T10:34:51;100441.63;;;8.57;100.00
1207;BME280;593;53.184;8.216;2023-12-20T10:37:17;100447.34;;;8.56;100.00
1207;BME280;593;53.184;8.216;2023-12-20T10:39:43;100432.72;;;8.52;100.00
1207;BME280;593;53.184;8.216;2023-12-20T10:42:11;100436.22;;;8.57;100.00
1207;BME280;593;53.184;8.216;2023-12-20T10:44:37;100439.75;;;8.53;100.00
1207;BME280;593;53.184;8.216;2023-12-20T10:47:03;100434.59;;;8.56;100.00
1207;BME280;593;53.184;8.216;2023-12-20T10:49:30;100428.66;;;8.54;100.00
1207;BME280;593;53.184;8.216;2023-12-20T10:51:56;100428.38;;;8.56;100.00
1207;BME280;593;53.184;8.216;2023-12-20T10:54:24;100433.78;;;8.56;100.00
1207;BME280;593;53.184;8.216;2023-12-20T10:56:52;100435.44;;;8.57;100.00
1207;BME280;593;53.184;8.216;2023-12-20T10:59:21;100420.22;;;8.56;100.00
1207;BME280;593;53.184;8.216;2023-12-20T11:01:50;100425.66;;;8.56;100.00
1207;BME280;593;53.184;8.216;2023-12-20T11:04:24;100421.88;;;8.52;100.00
1207;BME280;593;53.184;8.216;2023-12-20T11:07:02;100413.19;;;8.55;100.00
1207;BME280;593;53.184;8.216;2023-12-20T11:09:38;100416.72;;;8.55;100.00
1207;BME280;593;53.184;8.216;2023-12-20T11:12:31;100418.34;;;8.56;100.00
1207;BME280;593;53.184;8.216;2023-12-20T11:15:02;100416.72;;;8.55;100.00
1207;BME280;593;53.184;8.216;2023-12-20T11:17:33;100410.22;;;8.56;100.00
1207;BME280;593;53.184;8.216;2023-12-20T11:20:04;100403.16;;;8.50;100.00
1207;BME280;593;53.184;8.216;2023-12-20T11:22:32;100396.16;;;8.49;100.00
1207;BME280;593;53.184;8.216;2023-12-20T11:25:10;100405.03;;;8.55;100.00
1207;BME280;593;53.184;8.216;2023-12-20T11:27:40;100403.44;;;8.54;100.00
1207;BME280;593;53.184;8.216;2023-12-20T11:30:07;100395.56;;;8.47;100.00
1207;BME280;593;53.184;8.216;2023-12-20T11:32:35;100405.34;;;8.53;100.00
1207;BME280;593;53.184;8.216;2023-12-20T11:35:21;100413.47;;;8.53;100.00
1207;BME280;593;53.184;8.216;2023-12-20T11:37:49;100402.63;;;8.53;100.00
1207;BME280;593;53.184;8.216;2023-12-20T11:40:18;100400.72;;;8.54;100.00
1207;BME280;593;53.184;8.216;2023-12-20T11:42:45;100398.28;;;8.52;100.00
1207;BME280;593;53.184;8.216;2023-12-20T11:45:15;100398.84;;;8.54;100.00
1207;BME280;593;53.184;8.216;2023-12-20T11:47:48;100398.84;;;8.54;100.00
1207;BME280;593;53.184;8.216;2023-12-20T11:50:23;100389.59;;;8.55;100.00
1207;BME280;593;53.184;8.216;2023-12-20T11:52:52;100389.59;;;8.55;100.00
1207;BME280;593;53.184;8.216;2023-12-20T11:55:20;100390.41;;;8.56;100.00
1207;BME280;593;53.184;8.216;2023-12-20T11:57:48;100386.63;;;8.57;100.00
1207;BME280;593;53.184;8.216;2023-12-20T12:00:15;100394.19;;;8.55;100.00
1207;BME280;593;53.184;8.216;2023-12-20T12:02:43;100396.91;;;8.60;100.00
1207;BME280;593;53.184;8.216;2023-12-20T12:05:09;100384.44;;;8.59;100.00
1207;BME280;593;53.184;8.216;2023-12-20T12:07:35;100388.78;;;8.60;100.00
1207;BME280;593;53.184;8.216;2023-12-20T12:10:01;100387.16;;;8.64;100.00
1207;BME280;593;53.184;8.216;2023-12-20T12:12:29;100379.03;;;8.59;100.00
1207;BME280;593;53.184;8.216;2023-12-20T12:14:55;100383.34;;;8.60;100.00
1207;BME280;593;53.184;8.216;2023-12-20T12:17:22;100389.00;;;8.73;100.00
1207;BME280;593;53.184;8.216;2023-12-20T12:19:48;100395.78;;;8.76;100.00
1207;BME280;593;53.184;8.216;2023-12-20T12:22:14;100389.00;;;8.78;100.00
1207;BME280;593;53.184;8.216;2023-12-20T12:24:45;100391.75;;;8.68;100.00
1207;BME280;593;53.184;8.216;2023-12-20T12:27:12;100394.94;;;8.80;100.00
1207;BME280;593;53.184;8.216;2023-12-20T12:29:37;100389.78;;;8.84;100.00
1207;BME280;593;53.184;8.216;2023-12-20T12:32:07;100398.72;;;8.84;100.00
1207;BME280;593;53.184;8.216;2023-12-20T12:34:34;100391.69;;;8.83;100.00
1207;BME280;593;53.184;8.216;2023-12-20T12:37:00;100392.75;;;8.82;100.00
1207;BME280;593;53.184;8.216;2023-12-20T12:39:25;100386.81;;;8.80;100.00
1207;BME280;593;53.184;8.216;2023-12-20T12:41:51;100399.00;;;8.83;100.00
1207;BME280;593;53.184;8.216;2023-12-20T12:44:17;100398.47;;;8.81;100.00
1207;BME280;593;53.184;8.216;2023-12-20T12:46:43;100397.63;;;8.85;100.00
1207;BME280;593;53.184;8.216;2023-12-20T12:49:09;100390.59;;;8.79;100.00
1207;BME280;593;53.184;8.216;2023-12-20T12:51:34;100396.81;;;8.85;100.00
1207;BME280;593;53.184;8.216;2023-12-20T12:53:59;100380.56;;;8.80;100.00
1207;BME280;593;53.184;8.216;2023-12-20T12:56:25;100384.09;;;8.80;100.00
1207;BME280;593;53.184;8.216;2023-12-20T12:58:50;100387.84;;;8.84;100.00
1207;BME280;593;53.184;8.216;2023-12-20T13:01:16;100375.41;;;8.83;100.00
1207;BME280;593;53.184;8.216;2023-12-20T13:03:41;100367.84;;;8.75;100.00
1207;BME280;593;53.184;8.216;2023-12-20T13:06:07;100378.13;;;8.78;100.00
1207;BME280;593;53.184;8.216;2023-12-20T13:08:34;100370.81;;;8.79;100.00
1207;BME280;593;53.184;8.216;2023-12-20T13:10:59;100381.09;;;8.82;100.00
1207;BME280;593;53.184;8.216;2023-12-20T13:13:26;100379.19;;;8.82;100.00
1207;BME280;593;53.184;8.216;2023-12-20T13:15:52;100380.56;;;8.80;100.00
1207;BME280;593;53.184;8.216;2023-12-20T13:18:20;100381.09;;;8.77;100.00